createdAt,value
2023-01-15T00:00:00.666Z,79.7
2023-01-15T00:01:00.615Z,79.7
2023-01-15T00:02:00.584Z,80
2023-01-15T00:03:00.587Z,79.7
2023-01-15T00:04:00.636Z,79.1
2023-01-15T00:05:00.582Z,79.1
2023-01-15T00:06:00.565Z,79.1
2023-01-15T00:07:00.586Z,79.1
2023-01-15T00:08:00.616Z,78.8
2023-01-15T00:09:00.622Z,78.5
2023-01-15T00:10:00.596Z,78.8
2023-01-15T00:11:00.577Z,78.8
2023-01-15T00:12:00.575Z,78.8
2023-01-15T00:13:00.574Z,78.5
2023-01-15T00:14:00.591Z,78.5
2023-01-15T00:15:00.592Z,78.8
2023-01-15T00:16:00.633Z,78.8
2023-01-15T00:17:00.563Z,78.8
2023-01-15T00:18:00.573Z,78.8
2023-01-15T00:19:00.567Z,78.5
2023-01-15T00:20:00.602Z,78.5
2023-01-15T00:21:00.592Z,78.4
2023-01-15T00:22:00.606Z,78.5
2023-01-15T00:23:00.584Z,78.4
2023-01-15T00:24:00.603Z,78.8
2023-01-15T00:25:00.586Z,78.7
2023-01-15T00:26:00.604Z,78.8
2023-01-15T00:27:00.569Z,78.8
2023-01-15T00:28:01.865Z,79.1
2023-01-15T00:29:00.580Z,79.1
2023-01-15T00:30:00.681Z,78.8
2023-01-15T00:31:00.601Z,79.1
2023-01-15T00:32:00.587Z,79.1
2023-01-15T00:33:00.598Z,79.1
2023-01-15T00:34:00.606Z,79.1
2023-01-15T00:35:00.597Z,78.4
2023-01-15T00:36:00.604Z,78.4
2023-01-15T00:37:00.591Z,78.8
2023-01-15T00:38:00.607Z,79.1
2023-01-15T00:39:00.593Z,79.1
2023-01-15T00:40:00.609Z,79.1
2023-01-15T00:41:00.620Z,79.1
2023-01-15T00:42:00.599Z,79.1
2023-01-15T00:43:00.594Z,79.1
2023-01-15T00:44:00.603Z,79.1
2023-01-15T00:45:00.634Z,79.4
2023-01-15T00:46:00.605Z,78.4
2023-01-15T00:47:00.643Z,79.1
2023-01-15T00:48:00.632Z,79.1
2023-01-15T00:49:00.597Z,79.7
2023-01-15T00:50:00.652Z,79.4
2023-01-15T00:51:00.656Z,79.1
2023-01-15T00:52:00.610Z,79.1
2023-01-15T00:53:00.625Z,79.1
2023-01-15T00:54:00.598Z,79.1
2023-01-15T00:55:01.489Z,78.7
2023-01-15T00:56:00.596Z,78.7
2023-01-15T00:57:00.595Z,78.8
2023-01-15T00:58:00.610Z,79.1
2023-01-15T00:59:00.594Z,79.1
2023-01-15T01:00:00.613Z,79.1
2023-01-15T01:01:00.762Z,78.8
2023-01-15T01:02:00.776Z,79.4
2023-01-15T01:03:00.622Z,79.1
2023-01-15T01:04:00.636Z,79.1
2023-01-15T01:05:00.642Z,79.1
2023-01-15T01:06:00.623Z,79.1
2023-01-15T01:07:00.615Z,79.1
2023-01-15T01:08:00.612Z,79.1
2023-01-15T01:09:00.616Z,79.1
2023-01-15T01:10:00.626Z,79.1
2023-01-15T01:11:00.630Z,79.1
2023-01-15T01:12:00.615Z,79.1
2023-01-15T01:13:00.617Z,79.1
2023-01-15T01:14:00.623Z,79.1
2023-01-15T01:15:00.639Z,79.1
2023-01-15T01:16:00.705Z,79.1
2023-01-15T01:17:00.626Z,78.8
2023-01-15T01:18:00.613Z,78.5
2023-01-15T01:19:00.634Z,78.5
2023-01-15T01:20:00.628Z,78.5
2023-01-15T01:21:00.635Z,78.5
2023-01-15T01:22:00.630Z,78.6
2023-01-15T01:23:00.654Z,78.6
2023-01-15T01:24:00.626Z,78.9
2023-01-15T01:25:00.643Z,78.9
2023-01-15T01:26:00.659Z,78.9
2023-01-15T01:27:00.640Z,79.2
2023-01-15T01:28:00.639Z,78.9
2023-01-15T01:29:00.651Z,78.9
2023-01-15T01:30:00.652Z,78.9
2023-01-15T01:31:00.653Z,78.6
2023-01-15T01:32:00.649Z,78.6
2023-01-15T01:33:00.652Z,78.9
2023-01-15T01:34:00.680Z,78.6
2023-01-15T01:35:00.646Z,78.6
2023-01-15T01:36:00.672Z,78.6
2023-01-15T01:37:00.668Z,78.6
2023-01-15T01:38:00.630Z,78.6
2023-01-15T01:39:00.632Z,78.6
2023-01-15T01:40:00.644Z,78.6
2023-01-15T01:41:00.671Z,78.6
2023-01-15T01:42:00.655Z,78.6
2023-01-15T01:43:00.631Z,78.3
2023-01-15T01:44:00.682Z,78.3
2023-01-15T01:45:00.647Z,78.6
2023-01-15T01:46:00.746Z,78.3
2023-01-15T01:47:00.663Z,78.6
2023-01-15T01:48:00.654Z,78.6
2023-01-15T01:49:00.646Z,78.6
2023-01-15T01:50:00.642Z,78.6
2023-01-15T01:51:00.666Z,78.6
2023-01-15T01:52:00.647Z,78.7
2023-01-15T01:53:00.732Z,78.6
2023-01-15T01:54:00.656Z,78.6
2023-01-15T01:55:00.674Z,78.3
2023-01-15T01:56:00.722Z,78.6
2023-01-15T01:57:00.655Z,78.6
2023-01-15T01:58:00.662Z,78.7
2023-01-15T01:59:00.680Z,78.7
2023-01-15T02:00:00.663Z,78.7
2023-01-15T02:01:00.967Z,78.7
2023-01-15T02:02:00.808Z,78.7
2023-01-15T02:03:00.743Z,79
2023-01-15T02:04:00.669Z,79.3
2023-01-15T02:05:00.688Z,79.3
2023-01-15T02:06:00.686Z,79.3
2023-01-15T02:07:00.674Z,79.3
2023-01-15T02:08:00.667Z,79.3
2023-01-15T02:09:00.666Z,79.3
2023-01-15T02:10:00.689Z,79.6
2023-01-15T02:11:00.729Z,79.3
2023-01-15T02:12:00.680Z,79.3
2023-01-15T02:13:00.674Z,79.3
2023-01-15T02:14:00.719Z,79.3
2023-01-15T02:15:00.684Z,79.3
2023-01-15T02:16:00.714Z,79.3
2023-01-15T02:17:00.683Z,79.3
2023-01-15T02:18:00.672Z,79.3
2023-01-15T02:19:00.685Z,79.3
2023-01-15T02:20:00.703Z,79.3
2023-01-15T02:21:00.696Z,79.3
2023-01-15T02:22:00.685Z,79.3
2023-01-15T02:23:00.682Z,79.3
2023-01-15T02:24:03.010Z,79.3
2023-01-15T02:25:00.703Z,79.3
2023-01-15T02:26:00.702Z,79.3
2023-01-15T02:27:00.708Z,79.3
2023-01-15T02:28:00.687Z,79.6
2023-01-15T02:29:00.690Z,80
2023-01-15T02:30:00.709Z,79.9
2023-01-15T02:31:00.706Z,80
2023-01-15T02:32:00.735Z,79.9
2023-01-15T02:33:00.719Z,79.6
2023-01-15T02:34:00.696Z,80
2023-01-15T02:35:01.770Z,79.9
2023-01-15T02:36:00.732Z,79.9
2023-01-15T02:37:00.694Z,80
2023-01-15T02:38:00.710Z,80.6
2023-01-15T02:39:00.696Z,80.6
2023-01-15T02:40:00.721Z,80.6
2023-01-15T02:41:00.712Z,80.6
2023-01-15T02:42:00.699Z,80.6
2023-01-15T02:43:00.704Z,80.9
2023-01-15T02:44:00.702Z,81.2
2023-01-15T02:45:00.724Z,80.9
2023-01-15T02:46:00.741Z,81.2
2023-01-15T02:47:00.717Z,81.2
2023-01-15T02:48:00.714Z,81.2
2023-01-15T02:49:00.724Z,81.2
2023-01-15T02:50:00.726Z,81.2
2023-01-15T02:51:00.733Z,81.2
2023-01-15T02:52:00.717Z,81.2
2023-01-15T02:53:00.750Z,81.2
2023-01-15T02:54:00.731Z,81.5
2023-01-15T02:55:00.716Z,81.5
2023-01-15T02:56:00.730Z,81.8
2023-01-15T02:57:00.757Z,81.8
2023-01-15T02:58:00.743Z,81.8
2023-01-15T02:59:00.745Z,81.5
2023-01-15T03:00:00.719Z,81.5
2023-01-15T03:01:01.511Z,81.8
2023-01-15T03:02:01.440Z,81.8
2023-01-15T03:03:01.332Z,81.5
2023-01-15T03:04:01.327Z,81.8
2023-01-15T03:05:01.344Z,81.8
2023-01-15T03:06:01.353Z,81.8
2023-01-15T03:07:01.329Z,81.8
2023-01-15T03:08:01.404Z,81.8
2023-01-15T03:09:00.408Z,81.8
2023-01-15T03:10:00.443Z,81.8
2023-01-15T03:11:00.412Z,81.8
2023-01-15T03:12:00.456Z,81.8
2023-01-15T03:13:00.446Z,82.1
2023-01-15T03:14:00.420Z,82.1
2023-01-15T03:15:00.422Z,82.1
2023-01-15T03:16:00.423Z,82.5
2023-01-15T03:17:00.456Z,82.5
2023-01-15T03:18:00.452Z,82.5
2023-01-15T03:19:00.448Z,82.5
2023-01-15T03:20:00.442Z,82.5
2023-01-15T03:21:00.456Z,82.5
2023-01-15T03:22:00.429Z,82.8
2023-01-15T03:23:00.454Z,82.8
2023-01-15T03:24:00.449Z,83.1
2023-01-15T03:25:00.430Z,83.1
2023-01-15T03:26:00.439Z,83.1
2023-01-15T03:27:00.436Z,83.1
2023-01-15T03:28:00.473Z,83.1
2023-01-15T03:29:00.437Z,83.1
2023-01-15T03:30:00.444Z,83.1
2023-01-15T03:31:00.524Z,83.4
2023-01-15T03:32:00.450Z,83.1
2023-01-15T03:33:00.459Z,83.4
2023-01-15T03:34:00.436Z,83.4
2023-01-15T03:35:00.476Z,83.4
2023-01-15T03:36:00.463Z,83.7
2023-01-15T03:37:00.441Z,83.7
2023-01-15T03:38:00.464Z,83.7
2023-01-15T03:39:00.443Z,83.7
2023-01-15T03:40:00.508Z,83.7
2023-01-15T03:41:00.448Z,83.7
2023-01-15T03:42:00.464Z,83.7
2023-01-15T03:43:00.469Z,83.7
2023-01-15T03:44:00.457Z,83.7
2023-01-15T03:45:00.456Z,83.7
2023-01-15T03:46:00.496Z,83.7
2023-01-15T03:47:00.473Z,83.7
2023-01-15T03:48:00.480Z,83.7
2023-01-15T03:49:00.458Z,83.7
2023-01-15T03:50:00.502Z,83.7
2023-01-15T03:51:00.473Z,84
2023-01-15T03:52:00.488Z,83.7
2023-01-15T03:53:00.487Z,84
2023-01-15T03:54:00.554Z,84.3
2023-01-15T03:55:00.461Z,84.3
2023-01-15T03:56:00.492Z,84.3
2023-01-15T03:57:00.461Z,84.3
2023-01-15T03:58:00.467Z,84.3
2023-01-15T03:59:00.461Z,84.3
2023-01-15T04:00:00.511Z,84.3
2023-01-15T04:01:00.661Z,84.3
2023-01-15T04:02:00.641Z,84.3
2023-01-15T04:03:00.486Z,84.3
2023-01-15T04:04:00.508Z,84.3
2023-01-15T04:05:00.504Z,84.3
2023-01-15T04:06:00.508Z,84.3
2023-01-15T04:07:00.471Z,84.3
2023-01-15T04:08:00.478Z,84.3
2023-01-15T04:09:00.501Z,84.4
2023-01-15T04:10:00.498Z,84.7
2023-01-15T04:11:00.506Z,84.7
2023-01-15T04:12:00.488Z,84.7
2023-01-15T04:13:00.479Z,84.7
2023-01-15T04:14:00.484Z,85
2023-01-15T04:15:00.497Z,85
2023-01-15T04:16:00.588Z,85
2023-01-15T04:17:00.480Z,85
2023-01-15T04:18:00.483Z,85
2023-01-15T04:19:00.493Z,85
2023-01-15T04:20:00.543Z,84.7
2023-01-15T04:21:00.537Z,85
2023-01-15T04:22:00.499Z,85
2023-01-15T04:23:00.511Z,85
2023-01-15T04:24:00.494Z,85
2023-01-15T04:25:00.505Z,85
2023-01-15T04:26:00.514Z,85
2023-01-15T04:27:00.492Z,85
2023-01-15T04:28:00.525Z,85
2023-01-15T04:29:00.493Z,85.3
2023-01-15T04:30:00.518Z,85.3
2023-01-15T04:31:00.566Z,85.3
2023-01-15T04:32:00.517Z,85.3
2023-01-15T04:33:00.520Z,85.6
2023-01-15T04:34:00.511Z,85.6
2023-01-15T04:35:00.533Z,85.6
2023-01-15T04:36:00.522Z,85.6
2023-01-15T04:37:00.523Z,85.6
2023-01-15T04:38:00.546Z,85.9
2023-01-15T04:39:00.512Z,86
2023-01-15T04:40:00.517Z,86.2
2023-01-15T04:41:00.536Z,86.3
2023-01-15T04:42:00.522Z,86.2
2023-01-15T04:43:00.527Z,86.3
2023-01-15T04:44:00.509Z,86.3
2023-01-15T04:45:00.555Z,86.2
2023-01-15T04:46:00.588Z,86.3
2023-01-15T04:47:00.543Z,86.3
2023-01-15T04:48:00.579Z,86.2
2023-01-15T04:49:00.516Z,86.3
2023-01-15T04:50:00.589Z,86.2
2023-01-15T04:51:00.540Z,86.2
2023-01-15T04:52:00.530Z,86.3
2023-01-15T04:53:00.532Z,86.3
2023-01-15T04:54:00.538Z,86.3
2023-01-15T04:55:00.536Z,86.3
2023-01-15T04:56:00.538Z,86.2
2023-01-15T04:57:00.546Z,86.2
2023-01-15T04:58:00.546Z,86.6
2023-01-15T04:59:00.568Z,86.3
2023-01-15T05:00:00.556Z,86.6
2023-01-15T05:01:00.568Z,86.6
2023-01-15T05:02:06.127Z,86.6
2023-01-15T05:03:00.566Z,86.6
2023-01-15T05:04:00.543Z,86.9
2023-01-15T05:05:00.571Z,86.9
2023-01-15T05:06:00.532Z,86.9
2023-01-15T05:07:00.531Z,86.9
2023-01-15T05:08:00.551Z,86.9
2023-01-15T05:09:00.546Z,86.9
2023-01-15T05:10:00.572Z,86.9
2023-01-15T05:11:00.563Z,86.9
2023-01-15T05:12:00.535Z,86.9
2023-01-15T05:13:00.558Z,86.9
2023-01-15T05:14:00.568Z,87.2
2023-01-15T05:15:00.588Z,87.2
2023-01-15T05:16:00.611Z,87.2
2023-01-15T05:17:00.560Z,87.5
2023-01-15T05:18:00.560Z,87.5
2023-01-15T05:19:00.547Z,87.2
2023-01-15T05:20:00.576Z,87.2
2023-01-15T05:21:00.550Z,87.2
2023-01-15T05:22:00.560Z,87.5
2023-01-15T05:23:00.591Z,87.5
2023-01-15T05:24:00.611Z,87.5
2023-01-15T05:25:00.590Z,87.5
2023-01-15T05:26:00.575Z,87.8
2023-01-15T05:27:00.556Z,88.1
2023-01-15T05:28:00.557Z,88.1
2023-01-15T05:29:00.580Z,88.1
2023-01-15T05:30:00.601Z,88.4
2023-01-15T05:31:00.626Z,88.4
2023-01-15T05:32:00.561Z,88.4
2023-01-15T05:33:00.578Z,88.8
2023-01-15T05:34:00.600Z,88.8
2023-01-15T05:35:00.591Z,88.7
2023-01-15T05:36:00.574Z,88.7
2023-01-15T05:37:00.570Z,89.1
2023-01-15T05:38:00.578Z,89.4
2023-01-15T05:39:00.587Z,89.7
2023-01-15T05:40:00.594Z,89.4
2023-01-15T05:41:00.581Z,89.4
2023-01-15T05:42:00.598Z,89.3
2023-01-15T05:43:00.603Z,89.4
2023-01-15T05:44:00.622Z,89.7
2023-01-15T05:45:00.631Z,89.7
2023-01-15T05:46:00.626Z,89.7
2023-01-15T05:47:00.621Z,89.7
2023-01-15T05:48:00.598Z,89.7
2023-01-15T05:49:00.605Z,90
2023-01-15T05:50:00.612Z,90
2023-01-15T05:51:00.621Z,89.7
2023-01-15T05:52:00.669Z,90
2023-01-15T05:53:00.606Z,90
2023-01-15T05:54:00.589Z,90
2023-01-15T05:55:00.620Z,90
2023-01-15T05:56:00.607Z,90
2023-01-15T05:57:00.595Z,90
2023-01-15T05:58:00.593Z,90.3
2023-01-15T05:59:00.613Z,90.3
2023-01-15T06:00:00.620Z,90.3
2023-01-15T06:01:00.632Z,90.3
2023-01-15T06:02:00.640Z,90.6
2023-01-15T06:03:00.766Z,90.6
2023-01-15T06:04:00.688Z,90.6
2023-01-15T06:05:00.616Z,90.6
2023-01-15T06:06:00.595Z,90.6
2023-01-15T06:07:00.607Z,90.6
2023-01-15T06:08:01.456Z,90.6
2023-01-15T06:09:00.638Z,90.6
2023-01-15T06:10:00.628Z,90.6
2023-01-15T06:11:00.633Z,90.6
2023-01-15T06:12:00.603Z,90.9
2023-01-15T06:13:00.634Z,90.9
2023-01-15T06:14:00.666Z,90.9
2023-01-15T06:15:00.634Z,90.9
2023-01-15T06:16:00.739Z,90.9
2023-01-15T06:17:00.616Z,90.9
2023-01-15T06:18:00.633Z,90.9
2023-01-15T06:19:00.617Z,90.9
2023-01-15T06:20:00.664Z,90.9
2023-01-15T06:21:00.610Z,90.9
2023-01-15T06:22:00.623Z,90.9
2023-01-15T06:23:00.630Z,90.9
2023-01-15T06:24:01.427Z,90.9
2023-01-15T06:25:00.707Z,90.6
2023-01-15T06:26:00.640Z,90.6
2023-01-15T06:27:00.642Z,90.6
2023-01-15T06:28:00.630Z,90.9
2023-01-15T06:29:00.747Z,90.9
2023-01-15T06:30:00.682Z,90.9
2023-01-15T06:31:00.760Z,90.9
2023-01-15T06:32:00.696Z,91.2
2023-01-15T06:33:00.668Z,91.2
2023-01-15T06:34:00.719Z,91.2
2023-01-15T06:35:00.743Z,91.5
2023-01-15T06:36:00.717Z,91.5
2023-01-15T06:37:00.758Z,91.2
2023-01-15T06:38:00.720Z,91.5
2023-01-15T06:39:00.722Z,91.5
2023-01-15T06:40:00.794Z,91.5
2023-01-15T06:41:00.759Z,91.5
2023-01-15T06:42:00.816Z,91.8
2023-01-15T06:43:00.786Z,91.8
2023-01-15T06:44:00.751Z,92.1
2023-01-15T06:45:00.906Z,92.1
2023-01-15T06:46:00.789Z,92.1
2023-01-15T06:47:00.749Z,92.4
2023-01-15T06:48:00.827Z,92.4
2023-01-15T06:49:00.771Z,92.5
2023-01-15T06:50:00.717Z,92.4
2023-01-15T06:51:00.823Z,92.4
2023-01-15T06:52:00.701Z,92.4
2023-01-15T06:53:00.699Z,92.1
2023-01-15T06:54:00.649Z,91.8
2023-01-15T06:55:00.782Z,92.1
2023-01-15T06:56:00.742Z,92.1
2023-01-15T06:57:00.677Z,92.1
2023-01-15T06:58:00.684Z,92.1
2023-01-15T06:59:00.677Z,92.1
2023-01-15T07:00:00.718Z,92.1
2023-01-15T07:01:00.778Z,92.1
2023-01-15T07:02:00.655Z,92.1
2023-01-15T07:03:00.701Z,92.1
2023-01-15T07:04:00.735Z,92.1
2023-01-15T07:05:00.698Z,92.4
2023-01-15T07:06:00.676Z,92.4
2023-01-15T07:07:00.664Z,92.1
2023-01-15T07:08:00.670Z,92.4
2023-01-15T07:09:00.670Z,92.1
2023-01-15T07:10:00.704Z,92.4
2023-01-15T07:11:00.670Z,92.4
2023-01-15T07:12:00.719Z,92.1
2023-01-15T07:13:00.665Z,91.8
2023-01-15T07:14:00.682Z,91.8
2023-01-15T07:15:00.686Z,92.1
2023-01-15T07:16:00.733Z,91.8
2023-01-15T07:17:00.683Z,91.8
2023-01-15T07:18:00.672Z,91.8
2023-01-15T07:19:00.674Z,91.8
2023-01-15T07:20:00.712Z,91.8
2023-01-15T07:21:00.699Z,91.5
2023-01-15T07:22:00.696Z,91.5
2023-01-15T07:23:00.672Z,91.2
2023-01-15T07:24:00.685Z,91.2
2023-01-15T07:25:00.695Z,91.2
2023-01-15T07:26:00.698Z,91.2
2023-01-15T07:27:00.693Z,91.2
2023-01-15T07:28:00.710Z,91.2
2023-01-15T07:29:00.696Z,91.2
2023-01-15T07:30:00.703Z,91.2
2023-01-15T07:31:00.740Z,91.2
2023-01-15T07:32:00.689Z,91.2
2023-01-15T07:33:00.701Z,91.2
2023-01-15T07:34:00.698Z,90.6
2023-01-15T07:35:00.710Z,90.6
2023-01-15T07:36:00.694Z,90.6
2023-01-15T07:37:00.707Z,90.6
2023-01-15T07:38:00.713Z,90.6
2023-01-15T07:39:00.715Z,90.6
2023-01-15T07:40:00.713Z,90.6
2023-01-15T07:41:00.710Z,90.6
2023-01-15T07:42:00.709Z,90.3
2023-01-15T07:43:00.708Z,90
2023-01-15T07:44:00.695Z,90
2023-01-15T07:45:00.716Z,90
2023-01-15T07:46:00.767Z,90
2023-01-15T07:47:00.705Z,90
2023-01-15T07:48:00.717Z,90
2023-01-15T07:49:00.703Z,90
2023-01-15T07:50:00.716Z,89.7
2023-01-15T07:51:00.702Z,89.3
2023-01-15T07:52:00.730Z,89.7
2023-01-15T07:53:00.729Z,89.7
2023-01-15T07:54:00.714Z,89.3
2023-01-15T07:55:00.759Z,89.4
2023-01-15T07:56:00.756Z,89.4
2023-01-15T07:57:00.713Z,89.4
2023-01-15T07:58:00.731Z,89.4
2023-01-15T07:59:00.722Z,88.8
2023-01-15T08:00:00.762Z,89.1
2023-01-15T08:01:00.876Z,89.1
2023-01-15T08:02:00.803Z,89.1
2023-01-15T08:03:00.743Z,89.1
2023-01-15T08:04:00.778Z,89.1
2023-01-15T08:05:00.713Z,88.8
2023-01-15T08:06:00.723Z,88.7
2023-01-15T08:07:00.730Z,88.8
2023-01-15T08:08:00.738Z,88.4
2023-01-15T08:09:00.720Z,88.1
2023-01-15T08:10:00.731Z,88.1
2023-01-15T08:12:00.741Z,88.1
2023-01-15T08:13:00.771Z,88.2
2023-01-15T08:14:00.730Z,88.2
2023-01-15T08:15:00.746Z,88.2
2023-01-15T08:16:00.751Z,87.8
2023-01-15T08:17:00.726Z,87.5
2023-01-15T08:18:00.745Z,87.5
2023-01-15T08:19:00.733Z,87.5
2023-01-15T08:20:00.735Z,87.5
2023-01-15T08:21:00.751Z,87.2
2023-01-15T08:22:00.731Z,87.6
2023-01-15T08:23:00.761Z,87.6
2023-01-15T08:24:00.731Z,86.9
2023-01-15T08:25:00.744Z,86.9
2023-01-15T08:26:00.763Z,86.9
2023-01-15T08:27:00.741Z,86.9
2023-01-15T08:28:00.743Z,86.9
2023-01-15T08:29:00.749Z,86.9
2023-01-15T08:30:00.758Z,87.2
2023-01-15T08:31:00.777Z,87.5
2023-01-15T08:32:03.183Z,87.5
2023-01-15T08:33:00.747Z,87.6
2023-01-15T08:34:00.748Z,88.2
2023-01-15T08:35:00.760Z,88.2
2023-01-15T08:36:00.764Z,88.2
2023-01-15T08:37:00.808Z,87.5
2023-01-15T08:38:00.763Z,88.8
2023-01-15T08:39:00.747Z,89.4
2023-01-15T08:40:00.758Z,89.4
2023-01-15T08:41:00.813Z,89.3
2023-01-15T08:42:00.765Z,89.6
2023-01-15T08:43:00.757Z,90.2
2023-01-15T08:44:00.759Z,90.5
2023-01-15T08:45:00.798Z,90.2
2023-01-15T08:46:01.868Z,90.5
2023-01-15T08:47:00.773Z,90.5
2023-01-15T08:48:00.765Z,90.5
2023-01-15T08:49:00.762Z,90.5
2023-01-15T08:50:02.363Z,89.9
2023-01-15T08:51:00.787Z,89.6
2023-01-15T08:52:00.779Z,88.9
2023-01-15T08:53:00.798Z,88.9
2023-01-15T08:54:00.763Z,88.9
2023-01-15T08:55:00.761Z,89.2
2023-01-15T08:56:00.785Z,88.5
2023-01-15T08:57:00.777Z,88.2
2023-01-15T08:58:00.778Z,87.9
2023-01-15T08:59:00.791Z,87.2
2023-01-15T09:00:00.809Z,87.2
2023-01-15T09:01:00.999Z,87.8
2023-01-15T09:02:00.908Z,88.2
2023-01-15T09:03:00.784Z,88.5
2023-01-15T09:04:00.810Z,88.4
2023-01-15T09:05:00.859Z,88.1
2023-01-15T09:06:00.799Z,87.5
2023-01-15T09:07:00.825Z,88.1
2023-01-15T09:08:00.786Z,88.4
2023-01-15T09:09:00.753Z,88.4
2023-01-15T09:10:00.746Z,88.4
2023-01-15T09:11:00.713Z,88.4
2023-01-15T09:12:00.671Z,88.4
2023-01-15T09:13:00.634Z,87.8
2023-01-15T09:14:00.599Z,87.8
2023-01-15T09:15:02.694Z,87.4
2023-01-15T09:16:00.583Z,87.7
2023-01-15T09:17:00.519Z,88.3
2023-01-15T09:18:00.501Z,87.7
2023-01-15T09:19:00.474Z,88
2023-01-15T09:20:00.464Z,88.4
2023-01-15T09:21:00.436Z,87.7
2023-01-15T09:22:00.385Z,87.7
2023-01-15T09:23:00.372Z,88
2023-01-15T09:24:00.367Z,87.7
2023-01-15T09:25:00.393Z,87.7
2023-01-15T09:26:00.390Z,87.7
2023-01-15T09:27:00.381Z,87.7
2023-01-15T09:28:00.372Z,87.8
2023-01-15T09:29:00.370Z,88.4
2023-01-15T09:30:00.397Z,87.7
2023-01-15T09:31:00.460Z,87.1
2023-01-15T09:32:00.387Z,87.1
2023-01-15T09:33:00.398Z,87.4
2023-01-15T09:34:00.387Z,87.7
2023-01-15T09:35:00.400Z,87.1
2023-01-15T09:36:00.412Z,87.1
2023-01-15T09:37:00.423Z,87.1
2023-01-15T09:38:00.383Z,87.7
2023-01-15T09:39:00.390Z,88.3
2023-01-15T09:40:00.381Z,87
2023-01-15T09:41:00.401Z,87
2023-01-15T09:42:00.404Z,87
2023-01-15T09:43:00.383Z,87.7
2023-01-15T09:44:00.388Z,88.3
2023-01-15T09:45:00.388Z,87.7
2023-01-15T09:46:00.464Z,87
2023-01-15T09:47:00.391Z,87.7
2023-01-15T09:48:00.402Z,88
2023-01-15T09:49:00.414Z,86.7
2023-01-15T09:50:00.396Z,86.4
2023-01-15T09:51:00.415Z,87.1
2023-01-15T09:52:00.407Z,86.7
2023-01-15T09:53:00.403Z,87.1
2023-01-15T09:54:00.415Z,87.7
2023-01-15T09:55:00.413Z,87.1
2023-01-15T09:56:00.418Z,87.1
2023-01-15T09:57:00.400Z,87.1
2023-01-15T09:58:00.413Z,87.1
2023-01-15T09:59:00.425Z,87.4
2023-01-15T10:00:00.405Z,86.4
2023-01-15T10:01:00.463Z,86.1
2023-01-15T10:02:00.418Z,86.4
2023-01-15T10:03:00.456Z,86.4
2023-01-15T10:04:00.472Z,86.4
2023-01-15T10:05:00.409Z,86.4
2023-01-15T10:06:00.432Z,86.4
2023-01-15T10:07:00.407Z,86.4
2023-01-15T10:08:00.416Z,86.4
2023-01-15T10:09:00.411Z,87
2023-01-15T10:10:00.439Z,87
2023-01-15T10:11:00.437Z,87
2023-01-15T10:12:00.422Z,87
2023-01-15T10:13:00.415Z,87
2023-01-15T10:14:00.411Z,87.3
2023-01-15T10:15:00.434Z,87.7
2023-01-15T10:16:00.481Z,87
2023-01-15T10:17:00.443Z,87.7
2023-01-15T10:18:00.444Z,87
2023-01-15T10:19:00.424Z,87
2023-01-15T10:20:00.465Z,87
2023-01-15T10:21:00.430Z,86.4
2023-01-15T10:22:00.425Z,86.1
2023-01-15T10:23:00.447Z,86.4
2023-01-15T10:24:00.469Z,86.7
2023-01-15T10:25:00.451Z,86.1
2023-01-15T10:26:00.455Z,86.1
2023-01-15T10:27:00.437Z,86.4
2023-01-15T10:28:00.452Z,86.7
2023-01-15T10:29:00.430Z,86.1
2023-01-15T10:30:00.478Z,86.4
2023-01-15T10:31:00.530Z,86.4
2023-01-15T10:32:00.447Z,86.4
2023-01-15T10:33:03.115Z,87
2023-01-15T10:34:00.452Z,86.4
2023-01-15T10:35:00.452Z,86.1
2023-01-15T10:36:00.457Z,86.1
2023-01-15T10:37:00.445Z,85.7
2023-01-15T10:38:00.447Z,85.7
2023-01-15T10:39:00.437Z,85.7
2023-01-15T10:40:00.474Z,86.1
2023-01-15T10:41:00.461Z,85.7
2023-01-15T10:42:00.443Z,85.7
2023-01-15T10:43:00.461Z,85.7
2023-01-15T10:44:00.452Z,86.3
2023-01-15T10:45:00.466Z,86.3
2023-01-15T10:46:00.485Z,86.3
2023-01-15T10:47:00.454Z,86.6
2023-01-15T10:48:00.471Z,86.6
2023-01-15T10:49:00.460Z,86.7
2023-01-15T10:50:00.491Z,86.3
2023-01-15T10:51:00.453Z,86.3
2023-01-15T10:52:00.458Z,86.3
2023-01-15T10:53:00.474Z,86.9
2023-01-15T10:54:00.470Z,87
2023-01-15T10:55:00.458Z,87
2023-01-15T10:56:00.471Z,86.6
2023-01-15T10:57:00.463Z,86
2023-01-15T10:58:09.968Z,86.6
2023-01-15T10:59:00.461Z,86.9
2023-01-15T11:00:00.500Z,86.6
2023-01-15T11:01:00.535Z,86.9
2023-01-15T11:02:00.616Z,86.9
2023-01-15T11:03:00.578Z,86.9
2023-01-15T11:04:00.469Z,86.9
2023-01-15T11:05:00.470Z,86.9
2023-01-15T11:06:00.465Z,87.2
2023-01-15T11:07:00.490Z,87.6
2023-01-15T11:08:34.376Z,87.2
2023-01-15T11:09:09.747Z,86.6
2023-01-15T11:10:00.494Z,86.6
2023-01-15T11:11:00.497Z,87.5
2023-01-15T11:12:00.518Z,88.2
2023-01-15T11:13:00.507Z,88.2
2023-01-15T11:14:00.479Z,87.6
2023-01-15T11:15:00.503Z,88.2
2023-01-15T11:16:00.535Z,88.2
2023-01-15T11:17:00.487Z,88.2
2023-01-15T11:18:00.495Z,88.2
2023-01-15T11:19:00.487Z,87.5
2023-01-15T11:20:00.527Z,87.6
2023-01-15T11:21:00.511Z,87.5
2023-01-15T11:22:00.496Z,87.9
2023-01-15T11:23:00.483Z,87.6
2023-01-15T11:24:00.503Z,86.9
2023-01-15T11:25:00.534Z,86.9
2023-01-15T11:26:00.513Z,86.9
2023-01-15T11:27:00.517Z,86.9
2023-01-15T11:28:00.509Z,87.5
2023-01-15T11:29:00.510Z,87.6
2023-01-15T11:30:00.523Z,87.5
2023-01-15T11:31:00.583Z,86.9
2023-01-15T11:32:00.511Z,86.9
2023-01-15T11:33:00.496Z,87.2
2023-01-15T11:34:00.501Z,87.2
2023-01-15T11:35:00.553Z,87.5
2023-01-15T11:36:00.516Z,87.5
2023-01-15T11:37:00.502Z,87.5
2023-01-15T11:38:00.518Z,88.2
2023-01-15T11:39:00.514Z,87.8
2023-01-15T11:40:00.523Z,88.1
2023-01-15T11:41:00.518Z,88.1
2023-01-15T11:42:00.508Z,87.5
2023-01-15T11:43:00.526Z,87.5
2023-01-15T11:44:00.541Z,87.8
2023-01-15T11:45:00.534Z,88.1
2023-01-15T11:46:00.546Z,88.2
2023-01-15T11:47:00.505Z,87.8
2023-01-15T11:48:00.518Z,86.9
2023-01-15T11:49:00.521Z,87.5
2023-01-15T11:50:00.544Z,88.1
2023-01-15T11:51:00.527Z,88.1
2023-01-15T11:52:00.523Z,88.1
2023-01-15T11:53:00.521Z,87.5
2023-01-15T11:54:00.520Z,87.2
2023-01-15T11:55:00.557Z,87.5
2023-01-15T11:56:00.543Z,87.8
2023-01-15T11:57:00.535Z,87.5
2023-01-15T11:58:00.547Z,86.9
2023-01-15T11:59:00.530Z,86.9
2023-01-15T12:00:00.641Z,87.2
2023-01-15T12:01:00.544Z,87.2
2023-01-15T12:02:00.542Z,87.2
2023-01-15T12:03:00.557Z,86.9
2023-01-15T12:04:00.688Z,86.8
2023-01-15T12:05:00.564Z,86.5
2023-01-15T12:06:00.536Z,86.8
2023-01-15T12:07:00.540Z,87.4
2023-01-15T12:08:00.551Z,87.1
2023-01-15T12:09:00.554Z,87.1
2023-01-15T12:10:00.575Z,86.5
2023-01-15T12:11:02.881Z,86.5
2023-01-15T12:12:00.540Z,86.2
2023-01-15T12:13:00.562Z,86.2
2023-01-15T12:14:00.549Z,86.8
2023-01-15T12:15:00.639Z,86.8
2023-01-15T12:16:00.584Z,87.1
2023-01-15T12:17:00.560Z,86.8
2023-01-15T12:18:00.562Z,86.5
2023-01-15T12:19:00.553Z,86.2
2023-01-15T12:20:00.605Z,86.5
2023-01-15T12:21:00.554Z,86.8
2023-01-15T12:22:00.546Z,86.5
2023-01-15T12:23:00.562Z,86.8
2023-01-15T12:24:00.548Z,86.5
2023-01-15T12:25:00.587Z,86.8
2023-01-15T12:26:00.583Z,86.8
2023-01-15T12:27:00.556Z,86.8
2023-01-15T12:28:00.605Z,86.5
2023-01-15T12:29:00.572Z,86.5
2023-01-15T12:30:00.630Z,86.5
2023-01-15T12:31:00.584Z,86.8
2023-01-15T12:32:00.554Z,86.8
2023-01-15T12:33:00.594Z,87.1
2023-01-15T12:34:00.555Z,87.4
2023-01-15T12:35:00.613Z,87.4
2023-01-15T12:36:00.574Z,87.4
2023-01-15T12:37:00.570Z,87.1
2023-01-15T12:38:00.577Z,86.8
2023-01-15T12:39:00.582Z,86.8
2023-01-15T12:40:00.611Z,87.1
2023-01-15T12:41:00.584Z,86.8
2023-01-15T12:42:00.566Z,86.8
2023-01-15T12:43:00.587Z,86.2
2023-01-15T12:44:00.572Z,86.2
2023-01-15T12:45:00.595Z,86.5
2023-01-15T12:46:00.571Z,86.5
2023-01-15T12:47:00.575Z,86.5
2023-01-15T12:48:00.595Z,86.8
2023-01-15T12:49:00.579Z,87.4
2023-01-15T12:50:00.601Z,87.7
2023-01-15T12:51:00.575Z,88.1
2023-01-15T12:52:00.579Z,88.3
2023-01-15T12:53:00.615Z,88.3
2023-01-15T12:54:00.577Z,88.7
2023-01-15T12:55:00.601Z,88.7
2023-01-15T12:56:00.600Z,88.7
2023-01-15T12:57:02.643Z,88.7
2023-01-15T12:58:00.606Z,88.7
2023-01-15T12:59:00.600Z,88.7
2023-01-15T13:00:00.675Z,89
2023-01-15T13:01:00.731Z,88.7
2023-01-15T13:02:00.706Z,88.7
2023-01-15T13:03:00.600Z,88.7
2023-01-15T13:04:00.601Z,89
2023-01-15T13:05:00.614Z,89
2023-01-15T13:06:00.622Z,88.6
2023-01-15T13:07:00.607Z,88.6
2023-01-15T13:08:00.623Z,88.9
2023-01-15T13:09:00.591Z,88.9
2023-01-15T13:10:00.617Z,89.2
2023-01-15T13:11:00.598Z,89.3
2023-01-15T13:12:00.613Z,89.6
2023-01-15T13:13:00.623Z,89.2
2023-01-15T13:14:00.611Z,89.2
2023-01-15T13:15:00.611Z,89.5
2023-01-15T13:16:00.649Z,89.5
2023-01-15T13:17:00.604Z,89.5
2023-01-15T13:18:00.634Z,89.8
2023-01-15T13:19:00.621Z,89.5
2023-01-15T13:20:00.634Z,89.8
2023-01-15T13:21:00.606Z,89.8
2023-01-15T13:22:00.625Z,89.8
2023-01-15T13:23:00.641Z,89.8